Romblon, Philippines
Current Conditions -  °F | °C
As of 8:00 PM on Friday 24 Oct 2014 (Local Time) from RPLL Reporting Station
Few Clouds Few Clouds  
Wind Chill: 81°   Ceiling: Unl
Heat Index: 85°   Visibility: 6mi
Dew Point: 72°   Wind: 5mph
Humidity: 74%   Direction: 90°E
Pressure: 29.88"   Gusts: NA
Location:  12.58°N, 122.27°E
Report Text: RPLL 241200Z 09004KT 050V130 9999 FEW025 27/22 Q1012 NOSIGRMK A2988
Loading
Personal Weather Stations






























Interactive Weather Map
Tropical Storm Tracking
New forecast layout! Learn more

10-Day Weather Forecast

Advertisements
Track Severe Weather on mobile